sensor_id;sensor_type;location;lat;lon;timestamp;P1;durP1;ratioP1;P2;durP2;ratioP2
70558;SDS011;58108;48.094;11.838;2023-03-19T00:01:48;11.20;;;5.10;;
70558;SDS011;58108;48.094;11.838;2023-03-19T00:04:13;11.07;;;4.93;;
70558;SDS011;58108;48.094;11.838;2023-03-19T00:06:40;11.10;;;5.23;;
70558;SDS011;58108;48.094;11.838;2023-03-19T00:09:05;11.00;;;5.13;;
70558;SDS011;58108;48.094;11.838;2023-03-19T00:11:30;8.93;;;4.20;;
70558;SDS011;58108;48.094;11.838;2023-03-19T00:13:56;11.43;;;4.50;;
70558;SDS011;58108;48.094;11.838;2023-03-19T00:16:21;10.57;;;4.23;;
70558;SDS011;58108;48.094;11.838;2023-03-19T00:18:46;12.07;;;4.60;;
70558;SDS011;58108;48.094;11.838;2023-03-19T00:21:11;11.67;;;4.90;;
70558;SDS011;58108;48.094;11.838;2023-03-19T00:23:37;10.30;;;4.60;;
70558;SDS011;58108;48.094;11.838;2023-03-19T00:26:02;11.00;;;4.07;;
70558;SDS011;58108;48.094;11.838;2023-03-19T00:28:28;10.20;;;3.07;;
70558;SDS011;58108;48.094;11.838;2023-03-19T00:30:53;8.70;;;3.40;;
70558;SDS011;58108;48.094;11.838;2023-03-19T00:33:18;9.20;;;3.63;;
70558;SDS011;58108;48.094;11.838;2023-03-19T00:35:44;13.55;;;3.75;;
70558;SDS011;58108;48.094;11.838;2023-03-19T00:38:10;10.05;;;3.50;;
70558;SDS011;58108;48.094;11.838;2023-03-19T00:40:35;9.13;;;3.33;;
70558;SDS011;58108;48.094;11.838;2023-03-19T00:43:01;10.37;;;3.43;;
70558;SDS011;58108;48.094;11.838;2023-03-19T00:45:26;9.73;;;3.20;;
70558;SDS011;58108;48.094;11.838;2023-03-19T00:47:51;8.00;;;3.30;;
70558;SDS011;58108;48.094;11.838;2023-03-19T00:50:17;8.30;;;2.93;;
70558;SDS011;58108;48.094;11.838;2023-03-19T00:52:42;7.33;;;3.00;;
70558;SDS011;58108;48.094;11.838;2023-03-19T00:55:07;8.13;;;3.07;;
70558;SDS011;58108;48.094;11.838;2023-03-19T00:57:32;11.40;;;3.53;;
70558;SDS011;58108;48.094;11.838;2023-03-19T00:59:58;6.80;;;2.70;;
70558;SDS011;58108;48.094;11.838;2023-03-19T01:02:23;5.95;;;2.92;;
70558;SDS011;58108;48.094;11.838;2023-03-19T01:04:48;8.57;;;2.90;;
70558;SDS011;58108;48.094;11.838;2023-03-19T01:07:13;6.47;;;2.93;;
70558;SDS011;58108;48.094;11.838;2023-03-19T01:09:38;7.43;;;2.83;;
70558;SDS011;58108;48.094;11.838;2023-03-19T01:12:05;6.50;;;2.60;;
70558;SDS011;58108;48.094;11.838;2023-03-19T01:14:30;7.05;;;2.70;;
70558;SDS011;58108;48.094;11.838;2023-03-19T01:16:56;7.47;;;2.30;;
70558;SDS011;58108;48.094;11.838;2023-03-19T01:19:21;8.07;;;2.40;;
70558;SDS011;58108;48.094;11.838;2023-03-19T01:21:46;5.87;;;2.10;;
70558;SDS011;58108;48.094;11.838;2023-03-19T01:24:13;5.30;;;2.00;;
70558;SDS011;58108;48.094;11.838;2023-03-19T01:26:38;6.27;;;2.47;;
70558;SDS011;58108;48.094;11.838;2023-03-19T01:29:04;7.17;;;2.50;;
70558;SDS011;58108;48.094;11.838;2023-03-19T01:31:29;7.83;;;2.90;;
70558;SDS011;58108;48.094;11.838;2023-03-19T01:33:54;5.90;;;2.40;;
70558;SDS011;58108;48.094;11.838;2023-03-19T01:36:19;7.00;;;2.63;;
70558;SDS011;58108;48.094;11.838;2023-03-19T01:38:45;5.67;;;2.60;;
70558;SDS011;58108;48.094;11.838;2023-03-19T01:41:10;6.60;;;2.83;;
70558;SDS011;58108;48.094;11.838;2023-03-19T01:43:35;9.80;;;2.60;;
70558;SDS011;58108;48.094;11.838;2023-03-19T01:46:06;6.70;;;3.17;;
70558;SDS011;58108;48.094;11.838;2023-03-19T01:48:42;6.43;;;2.50;;
70558;SDS011;58108;48.094;11.838;2023-03-19T01:51:09;8.20;;;2.80;;
70558;SDS011;58108;48.094;11.838;2023-03-19T01:53:35;6.35;;;2.40;;
70558;SDS011;58108;48.094;11.838;2023-03-19T01:56:02;7.20;;;2.40;;
70558;SDS011;58108;48.094;11.838;2023-03-19T01:58:28;8.48;;;2.70;;
70558;SDS011;58108;48.094;11.838;2023-03-19T02:00:53;7.30;;;2.60;;
70558;SDS011;58108;48.094;11.838;2023-03-19T02:03:18;6.23;;;2.47;;
70558;SDS011;58108;48.094;11.838;2023-03-19T02:05:44;7.30;;;3.23;;
70558;SDS011;58108;48.094;11.838;2023-03-19T02:08:11;9.48;;;3.03;;
70558;SDS011;58108;48.094;11.838;2023-03-19T02:10:38;8.13;;;2.55;;
70558;SDS011;58108;48.094;11.838;2023-03-19T02:13:04;8.57;;;3.00;;
70558;SDS011;58108;48.094;11.838;2023-03-19T02:15:30;10.13;;;3.33;;
70558;SDS011;58108;48.094;11.838;2023-03-19T02:17:55;6.23;;;2.80;;
70558;SDS011;58108;48.094;11.838;2023-03-19T02:25:40;10.02;;;3.47;;
70558;SDS011;58108;48.094;11.838;2023-03-19T02:28:08;9.30;;;3.80;;
70558;SDS011;58108;48.094;11.838;2023-03-19T02:30:35;11.88;;;3.40;;
70558;SDS011;58108;48.094;11.838;2023-03-19T02:33:00;8.57;;;3.53;;
70558;SDS011;58108;48.094;11.838;2023-03-19T02:35:25;10.23;;;4.00;;
70558;SDS011;58108;48.094;11.838;2023-03-19T02:37:52;12.40;;;3.47;;
70558;SDS011;58108;48.094;11.838;2023-03-19T02:42:43;13.67;;;3.70;;
70558;SDS011;58108;48.094;11.838;2023-03-19T02:45:08;7.77;;;3.23;;
70558;SDS011;58108;48.094;11.838;2023-03-19T02:47:33;9.40;;;3.70;;
70558;SDS011;58108;48.094;11.838;2023-03-19T02:49:58;10.40;;;3.30;;
70558;SDS011;58108;48.094;11.838;2023-03-19T02:52:24;9.47;;;3.33;;
70558;SDS011;58108;48.094;11.838;2023-03-19T02:54:49;9.10;;;3.70;;
70558;SDS011;58108;48.094;11.838;2023-03-19T02:57:14;9.00;;;3.70;;
70558;SDS011;58108;48.094;11.838;2023-03-19T02:59:40;8.90;;;3.60;;
70558;SDS011;58108;48.094;11.838;2023-03-19T03:02:05;6.77;;;2.90;;
70558;SDS011;58108;48.094;11.838;2023-03-19T03:04:30;7.13;;;3.30;;
70558;SDS011;58108;48.094;11.838;2023-03-19T03:06:56;8.65;;;3.80;;
70558;SDS011;58108;48.094;11.838;2023-03-19T03:09:21;8.43;;;3.57;;
70558;SDS011;58108;48.094;11.838;2023-03-19T03:11:47;7.47;;;3.60;;
70558;SDS011;58108;48.094;11.838;2023-03-19T03:14:12;10.40;;;4.00;;
70558;SDS011;58108;48.094;11.838;2023-03-19T03:16:37;12.27;;;3.60;;
70558;SDS011;58108;48.094;11.838;2023-03-19T03:19:03;10.37;;;3.20;;
70558;SDS011;58108;48.094;11.838;2023-03-19T03:21:28;7.95;;;2.90;;
70558;SDS011;58108;48.094;11.838;2023-03-19T03:23:54;9.33;;;3.17;;
70558;SDS011;58108;48.094;11.838;2023-03-19T03:26:19;7.73;;;3.10;;
70558;SDS011;58108;48.094;11.838;2023-03-19T03:28:44;8.50;;;3.50;;
70558;SDS011;58108;48.094;11.838;2023-03-19T03:31:10;8.63;;;4.00;;
70558;SDS011;58108;48.094;11.838;2023-03-19T03:33:35;9.05;;;4.38;;
70558;SDS011;58108;48.094;11.838;2023-03-19T03:36:01;9.13;;;3.57;;
70558;SDS011;58108;48.094;11.838;2023-03-19T03:38:26;9.57;;;3.40;;
70558;SDS011;58108;48.094;11.838;2023-03-19T03:40:52;6.73;;;3.03;;
70558;SDS011;58108;48.094;11.838;2023-03-19T03:43:18;7.70;;;3.30;;
70558;SDS011;58108;48.094;11.838;2023-03-19T03:45:44;8.00;;;2.78;;
70558;SDS011;58108;48.094;11.838;2023-03-19T03:48:10;7.07;;;2.83;;
70558;SDS011;58108;48.094;11.838;2023-03-19T03:50:35;7.68;;;3.40;;
70558;SDS011;58108;48.094;11.838;2023-03-19T03:53:00;8.63;;;3.07;;
70558;SDS011;58108;48.094;11.838;2023-03-19T03:55:26;7.90;;;3.13;;
70558;SDS011;58108;48.094;11.838;2023-03-19T03:57:52;8.48;;;3.20;;
70558;SDS011;58108;48.094;11.838;2023-03-19T04:00:17;9.57;;;3.67;;
70558;SDS011;58108;48.094;11.838;2023-03-19T04:02:43;7.82;;;3.30;;
70558;SDS011;58108;48.094;11.838;2023-03-19T04:05:08;8.90;;;3.10;;
70558;SDS011;58108;48.094;11.838;2023-03-19T04:07:33;12.30;;;3.00;;
70558;SDS011;58108;48.094;11.838;2023-03-19T04:09:58;6.90;;;3.10;;
70558;SDS011;58108;48.094;11.838;2023-03-19T04:12:24;7.07;;;3.03;;
70558;SDS011;58108;48.094;11.838;2023-03-19T04:14:49;8.27;;;2.90;;
70558;SDS011;58108;48.094;11.838;2023-03-19T04:17:15;5.77;;;2.60;;
70558;SDS011;58108;48.094;11.838;2023-03-19T04:19:40;6.53;;;2.67;;
70558;SDS011;58108;48.094;11.838;2023-03-19T04:22:07;6.43;;;2.20;;
70558;SDS011;58108;48.094;11.838;2023-03-19T04:24:32;5.63;;;2.00;;
70558;SDS011;58108;48.094;11.838;2023-03-19T04:26:57;6.23;;;2.43;;
70558;SDS011;58108;48.094;11.838;2023-03-19T04:29:22;7.47;;;2.37;;
70558;SDS011;58108;48.094;11.838;2023-03-19T04:31:48;8.00;;;2.50;;
70558;SDS011;58108;48.094;11.838;2023-03-19T04:34:14;5.57;;;2.47;;
70558;SDS011;58108;48.094;11.838;2023-03-19T04:36:39;6.50;;;3.00;;
70558;SDS011;58108;48.094;11.838;2023-03-19T04:39:05;8.00;;;3.27;;
70558;SDS011;58108;48.094;11.838;2023-03-19T04:41:30;5.68;;;2.60;;
70558;SDS011;58108;48.094;11.838;2023-03-19T04:43:56;7.20;;;2.72;;
70558;SDS011;58108;48.094;11.838;2023-03-19T04:46:21;8.80;;;3.00;;
70558;SDS011;58108;48.094;11.838;2023-03-19T04:48:46;7.37;;;3.00;;
70558;SDS011;58108;48.094;11.838;2023-03-19T04:51:12;6.73;;;2.60;;
70558;SDS011;58108;48.094;11.838;2023-03-19T04:53:37;7.57;;;2.90;;
70558;SDS011;58108;48.094;11.838;2023-03-19T04:56:03;9.07;;;3.22;;
70558;SDS011;58108;48.094;11.838;2023-03-19T04:58:29;8.57;;;2.83;;
70558;SDS011;58108;48.094;11.838;2023-03-19T05:00:54;8.60;;;3.10;;
70558;SDS011;58108;48.094;11.838;2023-03-19T05:03:20;6.73;;;3.10;;
70558;SDS011;58108;48.094;11.838;2023-03-19T05:05:45;8.23;;;2.97;;
70558;SDS011;58108;48.094;11.838;2023-03-19T05:08:11;7.00;;;3.10;;
70558;SDS011;58108;48.094;11.838;2023-03-19T05:10:37;6.22;;;2.97;;
70558;SDS011;58108;48.094;11.838;2023-03-19T05:13:03;10.67;;;3.63;;
70558;SDS011;58108;48.094;11.838;2023-03-19T05:15:28;9.43;;;3.35;;
70558;SDS011;58108;48.094;11.838;2023-03-19T05:17:53;7.53;;;3.33;;
70558;SDS011;58108;48.094;11.838;2023-03-19T05:20:19;7.73;;;3.17;;
70558;SDS011;58108;48.094;11.838;2023-03-19T05:22:44;7.87;;;3.40;;
70558;SDS011;58108;48.094;11.838;2023-03-19T05:25:10;7.50;;;3.40;;
70558;SDS011;58108;48.094;11.838;2023-03-19T05:27:36;8.05;;;3.47;;
70558;SDS011;58108;48.094;11.838;2023-03-19T05:30:01;8.93;;;3.23;;
70558;SDS011;58108;48.094;11.838;2023-03-19T05:32:26;8.07;;;2.90;;
70558;SDS011;58108;48.094;11.838;2023-03-19T05:34:52;8.87;;;3.17;;
70558;SDS011;58108;48.094;11.838;2023-03-19T05:37:17;7.23;;;3.07;;
70558;SDS011;58108;48.094;11.838;2023-03-19T05:39:42;9.80;;;3.40;;
70558;SDS011;58108;48.094;11.838;2023-03-19T05:42:08;9.43;;;3.40;;
70558;SDS011;58108;48.094;11.838;2023-03-19T05:44:33;7.40;;;3.10;;
70558;SDS011;58108;48.094;11.838;2023-03-19T05:46:58;8.37;;;3.40;;
70558;SDS011;58108;48.094;11.838;2023-03-19T05:49:23;9.07;;;3.17;;
70558;SDS011;58108;48.094;11.838;2023-03-19T05:51:49;7.00;;;3.17;;
70558;SDS011;58108;48.094;11.838;2023-03-19T05:54:14;7.97;;;3.20;;
70558;SDS011;58108;48.094;11.838;2023-03-19T05:56:39;8.77;;;3.50;;
70558;SDS011;58108;48.094;11.838;2023-03-19T05:59:04;9.80;;;3.37;;
70558;SDS011;58108;48.094;11.838;2023-03-19T06:01:30;9.52;;;3.40;;
70558;SDS011;58108;48.094;11.838;2023-03-19T06:03:55;9.30;;;3.30;;
70558;SDS011;58108;48.094;11.838;2023-03-19T06:06:20;7.90;;;3.40;;
70558;SDS011;58108;48.094;11.838;2023-03-19T06:08:46;7.70;;;3.23;;
70558;SDS011;58108;48.094;11.838;2023-03-19T06:11:12;7.95;;;3.38;;
70558;SDS011;58108;48.094;11.838;2023-03-19T06:13:37;7.47;;;2.90;;
70558;SDS011;58108;48.094;11.838;2023-03-19T06:16:03;6.93;;;2.77;;
70558;SDS011;58108;48.094;11.838;2023-03-19T06:18:28;7.93;;;3.17;;
70558;SDS011;58108;48.094;11.838;2023-03-19T06:20:53;6.67;;;2.70;;
70558;SDS011;58108;48.094;11.838;2023-03-19T06:23:18;8.53;;;3.10;;
70558;SDS011;58108;48.094;11.838;2023-03-19T06:25:44;9.15;;;3.22;;
70558;SDS011;58108;48.094;11.838;2023-03-19T06:28:09;8.10;;;2.93;;
70558;SDS011;58108;48.094;11.838;2023-03-19T06:30:35;6.93;;;3.47;;
70558;SDS011;58108;48.094;11.838;2023-03-19T06:33:00;6.23;;;2.43;;
70558;SDS011;58108;48.094;11.838;2023-03-19T06:35:26;9.03;;;3.03;;
70558;SDS011;58108;48.094;11.838;2023-03-19T06:37:51;9.95;;;3.25;;
70558;SDS011;58108;48.094;11.838;2023-03-19T06:40:16;9.80;;;3.95;;
70558;SDS011;58108;48.094;11.838;2023-03-19T06:42:45;8.30;;;3.70;;
70558;SDS011;58108;48.094;11.838;2023-03-19T06:45:11;7.50;;;3.13;;
70558;SDS011;58108;48.094;11.838;2023-03-19T06:47:36;10.05;;;3.90;;
70558;SDS011;58108;48.094;11.838;2023-03-19T06:50:01;9.87;;;4.37;;
70558;SDS011;58108;48.094;11.838;2023-03-19T06:52:27;8.37;;;3.63;;
70558;SDS011;58108;48.094;11.838;2023-03-19T06:54:52;7.03;;;2.80;;
70558;SDS011;58108;48.094;11.838;2023-03-19T06:57:17;14.03;;;4.13;;
70558;SDS011;58108;48.094;11.838;2023-03-19T06:59:42;9.60;;;3.47;;
70558;SDS011;58108;48.094;11.838;2023-03-19T07:02:11;10.10;;;4.33;;
70558;SDS011;58108;48.094;11.838;2023-03-19T07:04:36;10.55;;;4.30;;
70558;SDS011;58108;48.094;11.838;2023-03-19T07:07:01;10.50;;;4.40;;
70558;SDS011;58108;48.094;11.838;2023-03-19T07:09:27;7.87;;;3.53;;
70558;SDS011;58108;48.094;11.838;2023-03-19T07:11:52;9.97;;;4.50;;
70558;SDS011;58108;48.094;11.838;2023-03-19T07:14:17;8.70;;;4.13;;
70558;SDS011;58108;48.094;11.838;2023-03-19T07:16:42;7.87;;;2.77;;
70558;SDS011;58108;48.094;11.838;2023-03-19T07:19:07;13.00;;;3.10;;
70558;SDS011;58108;48.094;11.838;2023-03-19T07:21:32;6.13;;;2.40;;
70558;SDS011;58108;48.094;11.838;2023-03-19T07:23:58;9.77;;;4.63;;
70558;SDS011;58108;48.094;11.838;2023-03-19T07:26:23;8.87;;;3.53;;
70558;SDS011;58108;48.094;11.838;2023-03-19T07:28:48;10.67;;;4.27;;
70558;SDS011;58108;48.094;11.838;2023-03-19T07:31:13;9.77;;;4.97;;
70558;SDS011;58108;48.094;11.838;2023-03-19T07:33:40;7.72;;;3.38;;
70558;SDS011;58108;48.094;11.838;2023-03-19T07:36:06;10.38;;;4.75;;
70558;SDS011;58108;48.094;11.838;2023-03-19T07:38:31;11.02;;;5.10;;
70558;SDS011;58108;48.094;11.838;2023-03-19T07:40:57;8.97;;;4.03;;
70558;SDS011;58108;48.094;11.838;2023-03-19T07:43:22;14.00;;;4.67;;
70558;SDS011;58108;48.094;11.838;2023-03-19T07:45:47;11.60;;;5.23;;
70558;SDS011;58108;48.094;11.838;2023-03-19T07:48:12;13.03;;;5.20;;
70558;SDS011;58108;48.094;11.838;2023-03-19T07:50:38;10.30;;;5.40;;
70558;SDS011;58108;48.094;11.838;2023-03-19T07:53:03;11.47;;;4.93;;
70558;SDS011;58108;48.094;11.838;2023-03-19T07:55:28;12.60;;;5.10;;
70558;SDS011;58108;48.094;11.838;2023-03-19T07:57:53;7.63;;;4.13;;
70558;SDS011;58108;48.094;11.838;2023-03-19T08:00:18;7.17;;;2.60;;
70558;SDS011;58108;48.094;11.838;2023-03-19T08:02:44;9.77;;;4.23;;
70558;SDS011;58108;48.094;11.838;2023-03-19T08:05:09;12.33;;;5.40;;
70558;SDS011;58108;48.094;11.838;2023-03-19T08:07:35;8.77;;;4.32;;
70558;SDS011;58108;48.094;11.838;2023-03-19T08:10:00;10.97;;;3.83;;
70558;SDS011;58108;48.094;11.838;2023-03-19T08:12:26;8.02;;;3.72;;
70558;SDS011;58108;48.094;11.838;2023-03-19T08:14:51;8.65;;;3.92;;
70558;SDS011;58108;48.094;11.838;2023-03-19T08:17:16;10.23;;;4.27;;
70558;SDS011;58108;48.094;11.838;2023-03-19T08:19:42;8.90;;;4.00;;
70558;SDS011;58108;48.094;11.838;2023-03-19T08:22:07;7.85;;;3.75;;
70558;SDS011;58108;48.094;11.838;2023-03-19T08:24:32;8.57;;;4.10;;
70558;SDS011;58108;48.094;11.838;2023-03-19T08:26:57;9.23;;;3.70;;
70558;SDS011;58108;48.094;11.838;2023-03-19T08:29:22;7.93;;;3.47;;
70558;SDS011;58108;48.094;11.838;2023-03-19T08:31:50;8.70;;;3.88;;
70558;SDS011;58108;48.094;11.838;2023-03-19T08:34:15;7.28;;;3.17;;
70558;SDS011;58108;48.094;11.838;2023-03-19T08:36:40;9.80;;;3.77;;
70558;SDS011;58108;48.094;11.838;2023-03-19T08:39:06;8.23;;;2.93;;
70558;SDS011;58108;48.094;11.838;2023-03-19T08:41:31;9.07;;;3.73;;
70558;SDS011;58108;48.094;11.838;2023-03-19T08:43:56;6.97;;;2.77;;
70558;SDS011;58108;48.094;11.838;2023-03-19T08:46:21;8.37;;;3.20;;
70558;SDS011;58108;48.094;11.838;2023-03-19T08:48:46;8.23;;;3.63;;
70558;SDS011;58108;48.094;11.838;2023-03-19T08:51:12;8.03;;;3.33;;
70558;SDS011;58108;48.094;11.838;2023-03-19T08:53:37;6.77;;;3.43;;
70558;SDS011;58108;48.094;11.838;2023-03-19T08:56:03;7.05;;;3.10;;
70558;SDS011;58108;48.094;11.838;2023-03-19T08:58:29;8.00;;;3.38;;
70558;SDS011;58108;48.094;11.838;2023-03-19T09:01:05;7.95;;;3.30;;
70558;SDS011;58108;48.094;11.838;2023-03-19T09:03:31;6.13;;;2.95;;
70558;SDS011;58108;48.094;11.838;2023-03-19T09:06:01;6.30;;;3.00;;
70558;SDS011;58108;48.094;11.838;2023-03-19T09:08:27;7.28;;;3.55;;
70558;SDS011;58108;48.094;11.838;2023-03-19T09:10:53;7.93;;;3.35;;
70558;SDS011;58108;48.094;11.838;2023-03-19T09:13:19;7.38;;;2.88;;
70558;SDS011;58108;48.094;11.838;2023-03-19T09:15:44;6.40;;;2.97;;
70558;SDS011;58108;48.094;11.838;2023-03-19T09:18:09;8.60;;;3.20;;
70558;SDS011;58108;48.094;11.838;2023-03-19T09:20:35;5.50;;;2.07;;
70558;SDS011;58108;48.094;11.838;2023-03-19T09:23:00;6.10;;;2.70;;
70558;SDS011;58108;48.094;11.838;2023-03-19T09:25:25;6.20;;;3.20;;
70558;SDS011;58108;48.094;11.838;2023-03-19T09:27:50;6.80;;;2.87;;
70558;SDS011;58108;48.094;11.838;2023-03-19T09:30:16;7.27;;;3.00;;
70558;SDS011;58108;48.094;11.838;2023-03-19T09:32:41;7.17;;;3.17;;
70558;SDS011;58108;48.094;11.838;2023-03-19T09:35:06;7.80;;;2.90;;
70558;SDS011;58108;48.094;11.838;2023-03-19T09:37:31;8.82;;;2.90;;
70558;SDS011;58108;48.094;11.838;2023-03-19T09:39:57;5.30;;;2.60;;
70558;SDS011;58108;48.094;11.838;2023-03-19T09:42:33;6.70;;;2.73;;
70558;SDS011;58108;48.094;11.838;2023-03-19T09:45:08;5.47;;;2.70;;
70558;SDS011;58108;48.094;11.838;2023-03-19T09:47:36;7.15;;;2.10;;
70558;SDS011;58108;48.094;11.838;2023-03-19T09:50:08;7.05;;;2.83;;
70558;SDS011;58108;48.094;11.838;2023-03-19T09:52:43;5.75;;;2.28;;
70558;SDS011;58108;48.094;11.838;2023-03-19T09:55:11;5.85;;;2.60;;
70558;SDS011;58108;48.094;11.838;2023-03-19T09:57:38;3.93;;;1.70;;
70558;SDS011;58108;48.094;11.838;2023-03-19T10:00:17;6.13;;;1.73;;
70558;SDS011;58108;48.094;11.838;2023-03-19T10:02:44;6.13;;;2.03;;
70558;SDS011;58108;48.094;11.838;2023-03-19T10:17:58;6.23;;;2.03;;
70558;SDS011;58108;48.094;11.838;2023-03-19T10:25:29;4.18;;;1.77;;
70558;SDS011;58108;48.094;11.838;2023-03-19T10:28:00;4.05;;;1.65;;
70558;SDS011;58108;48.094;11.838;2023-03-19T10:30:29;4.15;;;1.95;;
70558;SDS011;58108;48.094;11.838;2023-03-19T10:33:43;6.47;;;2.40;;
70558;SDS011;58108;48.094;11.838;2023-03-19T10:35:43;4.38;;;2.00;;
70558;SDS011;58108;48.094;11.838;2023-03-19T10:38:27;5.72;;;2.20;;
70558;SDS011;58108;48.094;11.838;2023-03-19T10:40:59;4.93;;;1.75;;
70558;SDS011;58108;48.094;11.838;2023-03-19T10:43:27;4.20;;;1.60;;
70558;SDS011;58108;48.094;11.838;2023-03-19T10:45:53;5.63;;;2.00;;
70558;SDS011;58108;48.094;11.838;2023-03-19T10:48:20;4.43;;;1.70;;
70558;SDS011;58108;48.094;11.838;2023-03-19T10:50:52;4.35;;;1.77;;
70558;SDS011;58108;48.094;11.838;2023-03-19T10:53:33;3.78;;;1.83;;
70558;SDS011;58108;48.094;11.838;2023-03-19T10:58:25;8.27;;;3.10;;
70558;SDS011;58108;48.094;11.838;2023-03-19T11:00:58;5.05;;;2.40;;
70558;SDS011;58108;48.094;11.838;2023-03-19T11:03:36;3.90;;;1.80;;
70558;SDS011;58108;48.094;11.838;2023-03-19T11:08:51;5.90;;;2.17;;
70558;SDS011;58108;48.094;11.838;2023-03-19T11:11:25;5.10;;;2.08;;
70558;SDS011;58108;48.094;11.838;2023-03-19T11:13:50;9.07;;;3.70;;
70558;SDS011;58108;48.094;11.838;2023-03-19T11:16:16;6.53;;;2.15;;
70558;SDS011;58108;48.094;11.838;2023-03-19T11:18:41;4.93;;;2.00;;
70558;SDS011;58108;48.094;11.838;2023-03-19T11:21:24;6.40;;;2.28;;
70558;SDS011;58108;48.094;11.838;2023-03-19T11:23:53;7.18;;;3.28;;
70558;SDS011;58108;48.094;11.838;2023-03-19T11:26:22;5.57;;;1.80;;
70558;SDS011;58108;48.094;11.838;2023-03-19T11:28:52;4.85;;;1.58;;
70558;SDS011;58108;48.094;11.838;2023-03-19T11:31:23;4.00;;;1.77;;
70558;SDS011;58108;48.094;11.838;2023-03-19T11:42:29;4.78;;;1.60;;
70558;SDS011;58108;48.094;11.838;2023-03-19T11:45:34;4.55;;;2.03;;
70558;SDS011;58108;48.094;11.838;2023-03-19T11:47:55;5.30;;;2.30;;
70558;SDS011;58108;48.094;11.838;2023-03-19T11:50:26;4.95;;;1.70;;
70558;SDS011;58108;48.094;11.838;2023-03-19T11:55:27;6.32;;;1.70;;
70558;SDS011;58108;48.094;11.838;2023-03-19T12:02:56;4.93;;;1.93;;
70558;SDS011;58108;48.094;11.838;2023-03-19T12:13:30;5.57;;;1.80;;
70558;SDS011;58108;48.094;11.838;2023-03-19T12:20:55;4.32;;;1.58;;
70558;SDS011;58108;48.094;11.838;2023-03-19T12:26:05;4.50;;;1.60;;
70558;SDS011;58108;48.094;11.838;2023-03-19T12:28:38;5.37;;;1.70;;
70558;SDS011;58108;48.094;11.838;2023-03-19T12:31:16;3.92;;;1.42;;
70558;SDS011;58108;48.094;11.838;2023-03-19T12:33:53;4.28;;;1.70;;
70558;SDS011;58108;48.094;11.838;2023-03-19T12:36:24;6.10;;;2.85;;
70558;SDS011;58108;48.094;11.838;2023-03-19T12:38:57;4.05;;;1.92;;
70558;SDS011;58108;48.094;11.838;2023-03-19T12:41:23;6.73;;;3.50;;
70558;SDS011;58108;48.094;11.838;2023-03-19T12:43:54;5.97;;;2.65;;
70558;SDS011;58108;48.094;11.838;2023-03-19T12:46:25;4.18;;;2.20;;
70558;SDS011;58108;48.094;11.838;2023-03-19T12:49:08;5.53;;;2.63;;
70558;SDS011;58108;48.094;11.838;2023-03-19T12:51:43;6.60;;;1.90;;
70558;SDS011;58108;48.094;11.838;2023-03-19T12:54:20;5.37;;;2.30;;
70558;SDS011;58108;48.094;11.838;2023-03-19T12:59:17;4.38;;;2.00;;
70558;SDS011;58108;48.094;11.838;2023-03-19T13:01:49;4.63;;;2.30;;
70558;SDS011;58108;48.094;11.838;2023-03-19T13:07:12;4.87;;;2.30;;
70558;SDS011;58108;48.094;11.838;2023-03-19T13:09:48;3.95;;;1.98;;
70558;SDS011;58108;48.094;11.838;2023-03-19T13:12:19;3.85;;;1.90;;
70558;SDS011;58108;48.094;11.838;2023-03-19T13:14:57;3.78;;;2.00;;
70558;SDS011;58108;48.094;11.838;2023-03-19T13:19:55;4.73;;;2.13;;
70558;SDS011;58108;48.094;11.838;2023-03-19T13:22:26;3.50;;;1.80;;
70558;SDS011;58108;48.094;11.838;2023-03-19T13:24:53;4.40;;;1.90;;
70558;SDS011;58108;48.094;11.838;2023-03-19T13:29:55;3.90;;;1.70;;
70558;SDS011;58108;48.094;11.838;2023-03-19T13:32:23;3.97;;;1.70;;
70558;SDS011;58108;48.094;11.838;2023-03-19T13:34:48;4.50;;;2.25;;
70558;SDS011;58108;48.094;11.838;2023-03-19T13:37:14;4.27;;;2.03;;
70558;SDS011;58108;48.094;11.838;2023-03-19T13:39:41;5.75;;;2.40;;
70558;SDS011;58108;48.094;11.838;2023-03-19T13:44:47;5.47;;;2.85;;
70558;SDS011;58108;48.094;11.838;2023-03-19T13:55:27;4.97;;;2.40;;
70558;SDS011;58108;48.094;11.838;2023-03-19T14:03:26;3.47;;;1.67;;
70558;SDS011;58108;48.094;11.838;2023-03-19T14:05:53;5.47;;;2.37;;
70558;SDS011;58108;48.094;11.838;2023-03-19T14:08:21;3.65;;;1.73;;
70558;SDS011;58108;48.094;11.838;2023-03-19T14:10:48;4.88;;;2.45;;
70558;SDS011;58108;48.094;11.838;2023-03-19T14:13:37;3.70;;;1.70;;
70558;SDS011;58108;48.094;11.838;2023-03-19T14:16:16;5.28;;;1.58;;
70558;SDS011;58108;48.094;11.838;2023-03-19T14:18:42;4.27;;;1.80;;
70558;SDS011;58108;48.094;11.838;2023-03-19T14:21:09;3.60;;;1.63;;
70558;SDS011;58108;48.094;11.838;2023-03-19T14:23:37;4.65;;;1.80;;
70558;SDS011;58108;48.094;11.838;2023-03-19T14:30:57;4.97;;;1.45;;
70558;SDS011;58108;48.094;11.838;2023-03-19T14:33:26;5.30;;;2.03;;
70558;SDS011;58108;48.094;11.838;2023-03-19T14:35:53;5.25;;;1.90;;
70558;SDS011;58108;48.094;11.838;2023-03-19T14:40:57;4.65;;;2.03;;
70558;SDS011;58108;48.094;11.838;2023-03-19T14:56:14;5.47;;;1.60;;
70558;SDS011;58108;48.094;11.838;2023-03-19T14:58:47;4.03;;;1.42;;
70558;SDS011;58108;48.094;11.838;2023-03-19T15:01:12;3.90;;;1.60;;
70558;SDS011;58108;48.094;11.838;2023-03-19T15:03:38;4.50;;;1.80;;
70558;SDS011;58108;48.094;11.838;2023-03-19T15:06:04;4.47;;;2.20;;
70558;SDS011;58108;48.094;11.838;2023-03-19T15:08:30;6.40;;;1.83;;
70558;SDS011;58108;48.094;11.838;2023-03-19T15:10:59;4.43;;;1.45;;
70558;SDS011;58108;48.094;11.838;2023-03-19T15:13:31;3.65;;;1.30;;
70558;SDS011;58108;48.094;11.838;2023-03-19T15:16:05;4.20;;;1.60;;
70558;SDS011;58108;48.094;11.838;2023-03-19T15:18:34;3.53;;;1.55;;
70558;SDS011;58108;48.094;11.838;2023-03-19T15:21:01;4.32;;;1.25;;
70558;SDS011;58108;48.094;11.838;2023-03-19T15:23:27;3.58;;;1.30;;
70558;SDS011;58108;48.094;11.838;2023-03-19T15:25:53;4.10;;;1.30;;
70558;SDS011;58108;48.094;11.838;2023-03-19T15:28:22;3.03;;;1.10;;
70558;SDS011;58108;48.094;11.838;2023-03-19T15:30:58;4.57;;;1.60;;
70558;SDS011;58108;48.094;11.838;2023-03-19T15:33:31;4.00;;;1.40;;
70558;SDS011;58108;48.094;11.838;2023-03-19T15:35:57;3.55;;;1.70;;
70558;SDS011;58108;48.094;11.838;2023-03-19T15:38:24;4.07;;;1.60;;
70558;SDS011;58108;48.094;11.838;2023-03-19T15:40:50;3.83;;;1.70;;
70558;SDS011;58108;48.094;11.838;2023-03-19T15:43:16;5.67;;;2.10;;
70558;SDS011;58108;48.094;11.838;2023-03-19T15:45:43;4.53;;;1.90;;
70558;SDS011;58108;48.094;11.838;2023-03-19T15:48:13;4.80;;;2.05;;
70558;SDS011;58108;48.094;11.838;2023-03-19T15:50:41;3.33;;;1.60;;
70558;SDS011;58108;48.094;11.838;2023-03-19T15:53:10;5.15;;;1.70;;
70558;SDS011;58108;48.094;11.838;2023-03-19T15:55:36;4.40;;;1.40;;
70558;SDS011;58108;48.094;11.838;2023-03-19T15:58:09;4.23;;;1.80;;
70558;SDS011;58108;48.094;11.838;2023-03-19T16:00:36;3.30;;;1.70;;
70558;SDS011;58108;48.094;11.838;2023-03-19T16:03:02;4.07;;;1.90;;
70558;SDS011;58108;48.094;11.838;2023-03-19T16:05:28;3.07;;;1.50;;
70558;SDS011;58108;48.094;11.838;2023-03-19T16:08:01;3.92;;;1.65;;
70558;SDS011;58108;48.094;11.838;2023-03-19T16:10:40;4.10;;;1.70;;
70558;SDS011;58108;48.094;11.838;2023-03-19T16:16:02;4.55;;;2.00;;
70558;SDS011;58108;48.094;11.838;2023-03-19T16:18:29;3.93;;;1.50;;
70558;SDS011;58108;48.094;11.838;2023-03-19T16:23:20;3.63;;;1.63;;
70558;SDS011;58108;48.094;11.838;2023-03-19T16:25:50;4.25;;;1.73;;
70558;SDS011;58108;48.094;11.838;2023-03-19T16:28:16;3.50;;;1.40;;